Millbury, Ohio
Current Conditions -  °F | °C
As of 1:53 PM on Friday 24 Oct 2014 (Local Time) from KTDZ Reporting Station
Overcast Overcast  
Wind Chill: 60°   Ceiling: 4400
Heat Index: 60°   Visibility: 10mi
Dew Point: 42°   Wind: 8mph
Humidity: 51%   Direction: 250°WSW
Pressure: 30.05"   Gusts: NA
Location:  41.57°N, 83.42°W
Report Text: KTDZ 241753Z AUTO 25007KT 10SM OVC044 16/06 A3005 RMK AO2 SLP176 T01560056 10161 20033 58019 TSNO
Loading
Personal Weather Stations






























Interactive Weather Map
Tropical Storm Tracking
New forecast layout! Learn more

10-Day Weather Forecast

Advertisements
Track Severe Weather on mobile